sensor_id;sensor_type;location;lat;lon;timestamp;temperature;humidity
61398;DHT22;47267;48.130;-2.040;2024-03-23T00:55:44;18.80;55.80
61398;DHT22;47267;48.130;-2.040;2024-03-23T00:58:10;18.80;55.80
61398;DHT22;47267;48.130;-2.040;2024-03-23T01:00:35;18.80;55.80
61398;DHT22;47267;48.130;-2.040;2024-03-23T01:03:01;18.80;55.80
61398;DHT22;47267;48.130;-2.040;2024-03-23T01:05:27;18.80;55.80
61398;DHT22;47267;48.130;-2.040;2024-03-23T01:07:52;18.80;55.80
61398;DHT22;47267;48.130;-2.040;2024-03-23T01:10:18;18.80;55.80
61398;DHT22;47267;48.130;-2.040;2024-03-23T01:12:44;18.70;55.80
61398;DHT22;47267;48.130;-2.040;2024-03-23T01:15:10;18.70;55.80
61398;DHT22;47267;48.130;-2.040;2024-03-23T01:17:35;18.70;55.80
61398;DHT22;47267;48.130;-2.040;2024-03-23T01:20:01;18.70;55.80
61398;DHT22;47267;48.130;-2.040;2024-03-23T01:22:27;18.70;55.70
61398;DHT22;47267;48.130;-2.040;2024-03-23T01:24:53;18.70;55.80
61398;DHT22;47267;48.130;-2.040;2024-03-23T01:27:18;18.60;55.70
61398;DHT22;47267;48.130;-2.040;2024-03-23T01:29:44;18.70;55.70
61398;DHT22;47267;48.130;-2.040;2024-03-23T01:32:10;18.70;55.70
61398;DHT22;47267;48.130;-2.040;2024-03-23T01:34:35;18.70;55.70
61398;DHT22;47267;48.130;-2.040;2024-03-23T01:37:01;18.70;55.70
61398;DHT22;47267;48.130;-2.040;2024-03-23T01:39:27;18.60;55.60
61398;DHT22;47267;48.130;-2.040;2024-03-23T01:41:53;18.60;55.60
61398;DHT22;47267;48.130;-2.040;2024-03-23T01:44:18;18.60;55.60
61398;DHT22;47267;48.130;-2.040;2024-03-23T01:46:44;18.60;55.60
61398;DHT22;47267;48.130;-2.040;2024-03-23T01:49:10;18.60;55.50
61398;DHT22;47267;48.130;-2.040;2024-03-23T01:51:37;18.60;55.50
61398;DHT22;47267;48.130;-2.040;2024-03-23T01:54:03;18.60;55.50
61398;DHT22;47267;48.130;-2.040;2024-03-23T01:56:33;18.50;55.40
61398;DHT22;47267;48.130;-2.040;2024-03-23T01:59:01;18.50;55.40
61398;DHT22;47267;48.130;-2.040;2024-03-23T02:01:27;18.60;55.50
61398;DHT22;47267;48.130;-2.040;2024-03-23T02:03:52;18.50;55.40
61398;DHT22;47267;48.130;-2.040;2024-03-23T02:06:18;18.50;55.40
61398;DHT22;47267;48.130;-2.040;2024-03-23T02:08:44;18.50;55.40
61398;DHT22;47267;48.130;-2.040;2024-03-23T02:11:10;18.50;55.40
61398;DHT22;47267;48.130;-2.040;2024-03-23T02:13:36;18.50;55.40
61398;DHT22;47267;48.130;-2.040;2024-03-23T02:16:01;18.50;55.30
61398;DHT22;47267;48.130;-2.040;2024-03-23T02:18:27;18.50;55.30
61398;DHT22;47267;48.130;-2.040;2024-03-23T02:20:53;18.50;55.20
61398;DHT22;47267;48.130;-2.040;2024-03-23T02:23:18;18.50;55.30
61398;DHT22;47267;48.130;-2.040;2024-03-23T02:25:44;18.50;55.20
61398;DHT22;47267;48.130;-2.040;2024-03-23T02:28:10;18.50;55.20
61398;DHT22;47267;48.130;-2.040;2024-03-23T02:30:37;18.50;55.20
61398;DHT22;47267;48.130;-2.040;2024-03-23T02:33:03;18.50;55.20
61398;DHT22;47267;48.130;-2.040;2024-03-23T02:35:29;18.50;55.20
61398;DHT22;47267;48.130;-2.040;2024-03-23T02:37:54;18.40;55.10
61398;DHT22;47267;48.130;-2.040;2024-03-23T02:40:23;18.40;55.10
61398;DHT22;47267;48.130;-2.040;2024-03-23T02:42:48;18.40;55.00
61398;DHT22;47267;48.130;-2.040;2024-03-23T02:45:14;18.40;55.00
61398;DHT22;47267;48.130;-2.040;2024-03-23T02:47:40;18.40;55.00
61398;DHT22;47267;48.130;-2.040;2024-03-23T02:50:06;18.40;55.10
61398;DHT22;47267;48.130;-2.040;2024-03-23T02:52:32;18.40;54.90
61398;DHT22;47267;48.130;-2.040;2024-03-23T02:54:58;18.40;54.90
61398;DHT22;47267;48.130;-2.040;2024-03-23T02:57:24;18.40;54.90
61398;DHT22;47267;48.130;-2.040;2024-03-23T02:59:49;18.40;54.90
61398;DHT22;47267;48.130;-2.040;2024-03-23T03:02:15;18.40;54.90
61398;DHT22;47267;48.130;-2.040;2024-03-23T03:04:42;18.40;54.90
61398;DHT22;47267;48.130;-2.040;2024-03-23T03:07:08;18.40;54.90
61398;DHT22;47267;48.130;-2.040;2024-03-23T03:09:33;18.30;54.90
61398;DHT22;47267;48.130;-2.040;2024-03-23T03:12:03;18.30;54.80
61398;DHT22;47267;48.130;-2.040;2024-03-23T03:14:29;18.30;54.80
61398;DHT22;47267;48.130;-2.040;2024-03-23T03:16:55;18.30;54.80
61398;DHT22;47267;48.130;-2.040;2024-03-23T03:19:21;18.30;54.80
61398;DHT22;47267;48.130;-2.040;2024-03-23T03:21:47;18.30;54.80
61398;DHT22;47267;48.130;-2.040;2024-03-23T03:24:13;18.30;54.80
61398;DHT22;47267;48.130;-2.040;2024-03-23T03:26:39;18.30;54.80
61398;DHT22;47267;48.130;-2.040;2024-03-23T03:29:04;18.30;54.80
61398;DHT22;47267;48.130;-2.040;2024-03-23T03:31:30;18.30;54.80
61398;DHT22;47267;48.130;-2.040;2024-03-23T03:33:56;18.30;54.80
61398;DHT22;47267;48.130;-2.040;2024-03-23T03:36:22;18.30;54.70
61398;DHT22;47267;48.130;-2.040;2024-03-23T03:38:47;18.30;54.70
61398;DHT22;47267;48.130;-2.040;2024-03-23T03:41:13;18.30;54.70
61398;DHT22;47267;48.130;-2.040;2024-03-23T03:43:39;18.30;54.70
61398;DHT22;47267;48.130;-2.040;2024-03-23T03:46:05;18.30;54.70
61398;DHT22;47267;48.130;-2.040;2024-03-23T03:48:33;18.30;54.70
61398;DHT22;47267;48.130;-2.040;2024-03-23T03:50:59;18.30;54.70
61398;DHT22;47267;48.130;-2.040;2024-03-23T03:53:25;18.30;54.70
61398;DHT22;47267;48.130;-2.040;2024-03-23T03:55:50;18.20;54.60
61398;DHT22;47267;48.130;-2.040;2024-03-23T03:58:16;18.20;54.60
61398;DHT22;47267;48.130;-2.040;2024-03-23T04:00:42;18.20;54.60
61398;DHT22;47267;48.130;-2.040;2024-03-23T04:03:07;18.20;54.60
61398;DHT22;47267;48.130;-2.040;2024-03-23T04:05:33;18.20;54.50
61398;DHT22;47267;48.130;-2.040;2024-03-23T04:07:59;18.20;54.50
61398;DHT22;47267;48.130;-2.040;2024-03-23T04:10:24;18.20;54.50
61398;DHT22;47267;48.130;-2.040;2024-03-23T04:12:50;18.20;54.50
61398;DHT22;47267;48.130;-2.040;2024-03-23T04:15:16;18.20;54.50
61398;DHT22;47267;48.130;-2.040;2024-03-23T04:17:41;18.20;54.50
61398;DHT22;47267;48.130;-2.040;2024-03-23T04:20:09;18.20;54.50
61398;DHT22;47267;48.130;-2.040;2024-03-23T04:22:40;18.20;54.50
61398;DHT22;47267;48.130;-2.040;2024-03-23T04:25:06;18.20;54.50
61398;DHT22;47267;48.130;-2.040;2024-03-23T04:27:37;18.20;54.50
61398;DHT22;47267;48.130;-2.040;2024-03-23T04:30:03;18.20;54.50
61398;DHT22;47267;48.130;-2.040;2024-03-23T04:32:31;18.20;54.40
61398;DHT22;47267;48.130;-2.040;2024-03-23T04:34:56;18.10;54.40
61398;DHT22;47267;48.130;-2.040;2024-03-23T04:37:22;18.10;54.40
61398;DHT22;47267;48.130;-2.040;2024-03-23T04:39:48;18.10;54.40
61398;DHT22;47267;48.130;-2.040;2024-03-23T04:42:16;18.10;54.40
61398;DHT22;47267;48.130;-2.040;2024-03-23T04:44:42;18.10;54.40
61398;DHT22;47267;48.130;-2.040;2024-03-23T04:47:08;18.10;54.40
61398;DHT22;47267;48.130;-2.040;2024-03-23T04:49:34;18.10;54.40
61398;DHT22;47267;48.130;-2.040;2024-03-23T04:52:05;18.10;54.30
61398;DHT22;47267;48.130;-2.040;2024-03-23T04:54:31;18.10;54.30
61398;DHT22;47267;48.130;-2.040;2024-03-23T04:56:58;18.10;54.30
61398;DHT22;47267;48.130;-2.040;2024-03-23T04:59:23;18.10;54.40
61398;DHT22;47267;48.130;-2.040;2024-03-23T05:01:49;18.10;54.40
61398;DHT22;47267;48.130;-2.040;2024-03-23T05:04:15;18.10;54.40
61398;DHT22;47267;48.130;-2.040;2024-03-23T05:06:40;18.10;54.40
61398;DHT22;47267;48.130;-2.040;2024-03-23T05:09:06;18.00;54.30
61398;DHT22;47267;48.130;-2.040;2024-03-23T05:11:35;18.10;54.30
61398;DHT22;47267;48.130;-2.040;2024-03-23T05:14:01;18.00;54.20
61398;DHT22;47267;48.130;-2.040;2024-03-23T05:16:28;18.00;54.20
61398;DHT22;47267;48.130;-2.040;2024-03-23T05:18:54;18.00;54.20
61398;DHT22;47267;48.130;-2.040;2024-03-23T05:21:20;18.00;54.30
61398;DHT22;47267;48.130;-2.040;2024-03-23T05:23:45;18.00;54.20
61398;DHT22;47267;48.130;-2.040;2024-03-23T05:26:11;18.00;54.20
61398;DHT22;47267;48.130;-2.040;2024-03-23T05:28:36;18.00;54.20
61398;DHT22;47267;48.130;-2.040;2024-03-23T05:31:02;18.00;54.20
61398;DHT22;47267;48.130;-2.040;2024-03-23T05:33:28;18.00;54.20
61398;DHT22;47267;48.130;-2.040;2024-03-23T05:35:58;18.00;54.20
61398;DHT22;47267;48.130;-2.040;2024-03-23T05:38:24;18.00;54.20
61398;DHT22;47267;48.130;-2.040;2024-03-23T05:40:59;18.00;54.20
61398;DHT22;47267;48.130;-2.040;2024-03-23T05:43:25;18.00;54.20
61398;DHT22;47267;48.130;-2.040;2024-03-23T05:45:55;18.00;54.20
61398;DHT22;47267;48.130;-2.040;2024-03-23T05:48:21;17.90;54.20
61398;DHT22;47267;48.130;-2.040;2024-03-23T05:50:48;17.90;54.20
61398;DHT22;47267;48.130;-2.040;2024-03-23T05:53:15;17.90;54.10
61398;DHT22;47267;48.130;-2.040;2024-03-23T05:55:41;17.90;54.20
61398;DHT22;47267;48.130;-2.040;2024-03-23T05:58:06;17.90;54.20
61398;DHT22;47267;48.130;-2.040;2024-03-23T06:00:32;17.90;54.20
61398;DHT22;47267;48.130;-2.040;2024-03-23T06:02:58;17.90;54.10
61398;DHT22;47267;48.130;-2.040;2024-03-23T06:05:23;17.90;54.10
61398;DHT22;47267;48.130;-2.040;2024-03-23T06:07:49;17.90;54.10
61398;DHT22;47267;48.130;-2.040;2024-03-23T06:10:15;17.90;54.10
61398;DHT22;47267;48.130;-2.040;2024-03-23T06:12:41;17.90;54.00
61398;DHT22;47267;48.130;-2.040;2024-03-23T06:15:07;17.90;54.00
61398;DHT22;47267;48.130;-2.040;2024-03-23T06:17:36;17.90;54.00
61398;DHT22;47267;48.130;-2.040;2024-03-23T06:20:02;17.90;54.00
61398;DHT22;47267;48.130;-2.040;2024-03-23T06:22:28;17.90;54.00
61398;DHT22;47267;48.130;-2.040;2024-03-23T06:24:54;17.90;54.00
61398;DHT22;47267;48.130;-2.040;2024-03-23T06:27:19;17.80;53.90
61398;DHT22;47267;48.130;-2.040;2024-03-23T06:29:45;17.90;54.00
61398;DHT22;47267;48.130;-2.040;2024-03-23T06:32:11;17.90;54.00
61398;DHT22;47267;48.130;-2.040;2024-03-23T06:34:36;17.80;53.90
61398;DHT22;47267;48.130;-2.040;2024-03-23T06:37:02;17.90;53.90
61398;DHT22;47267;48.130;-2.040;2024-03-23T06:39:28;17.80;53.90
61398;DHT22;47267;48.130;-2.040;2024-03-23T06:41:54;17.80;53.80
61398;DHT22;47267;48.130;-2.040;2024-03-23T06:44:20;17.90;53.80
61398;DHT22;47267;48.130;-2.040;2024-03-23T06:46:47;17.80;53.70
61398;DHT22;47267;48.130;-2.040;2024-03-23T06:49:14;17.80;53.70
61398;DHT22;47267;48.130;-2.040;2024-03-23T06:51:40;17.80;53.70
61398;DHT22;47267;48.130;-2.040;2024-03-23T06:54:06;17.90;53.80
61398;DHT22;47267;48.130;-2.040;2024-03-23T06:56:32;17.80;53.70
61398;DHT22;47267;48.130;-2.040;2024-03-23T06:59:00;17.80;54.20
61398;DHT22;47267;48.130;-2.040;2024-03-23T07:01:25;17.90;53.70
61398;DHT22;47267;48.130;-2.040;2024-03-23T07:03:51;17.80;53.60
61398;DHT22;47267;48.130;-2.040;2024-03-23T07:06:17;17.80;53.60
61398;DHT22;47267;48.130;-2.040;2024-03-23T07:08:42;17.80;53.60
61398;DHT22;47267;48.130;-2.040;2024-03-23T07:11:08;17.80;53.60
61398;DHT22;47267;48.130;-2.040;2024-03-23T07:13:34;17.90;53.60
61398;DHT22;47267;48.130;-2.040;2024-03-23T07:16:00;17.80;53.60
61398;DHT22;47267;48.130;-2.040;2024-03-23T07:18:26;17.90;53.60
61398;DHT22;47267;48.130;-2.040;2024-03-23T07:20:56;17.80;53.50
61398;DHT22;47267;48.130;-2.040;2024-03-23T07:23:22;17.80;53.40
61398;DHT22;47267;48.130;-2.040;2024-03-23T07:25:59;17.80;53.50
61398;DHT22;47267;48.130;-2.040;2024-03-23T07:28:24;17.90;53.50
61398;DHT22;47267;48.130;-2.040;2024-03-23T07:31:04;17.90;53.40
61398;DHT22;47267;48.130;-2.040;2024-03-23T07:33:30;17.90;53.40
61398;DHT22;47267;48.130;-2.040;2024-03-23T07:35:55;17.90;53.60
61398;DHT22;47267;48.130;-2.040;2024-03-23T07:38:21;17.90;53.70
61398;DHT22;47267;48.130;-2.040;2024-03-23T07:40:47;17.90;53.80
61398;DHT22;47267;48.130;-2.040;2024-03-23T07:43:15;17.90;53.90
61398;DHT22;47267;48.130;-2.040;2024-03-23T07:45:41;17.90;54.00
61398;DHT22;47267;48.130;-2.040;2024-03-23T07:48:06;17.90;54.20
61398;DHT22;47267;48.130;-2.040;2024-03-23T07:50:32;17.90;54.10
61398;DHT22;47267;48.130;-2.040;2024-03-23T07:52:58;17.90;54.80
61398;DHT22;47267;48.130;-2.040;2024-03-23T07:55:23;17.90;54.30
61398;DHT22;47267;48.130;-2.040;2024-03-23T07:57:51;17.90;54.30
61398;DHT22;47267;48.130;-2.040;2024-03-23T08:00:17;17.90;54.30
61398;DHT22;47267;48.130;-2.040;2024-03-23T08:02:43;17.90;54.40
61398;DHT22;47267;48.130;-2.040;2024-03-23T08:05:08;18.00;54.50
61398;DHT22;47267;48.130;-2.040;2024-03-23T08:07:34;18.00;54.60
61398;DHT22;47267;48.130;-2.040;2024-03-23T08:10:00;18.00;54.60
61398;DHT22;47267;48.130;-2.040;2024-03-23T08:12:28;18.00;54.60
61398;DHT22;47267;48.130;-2.040;2024-03-23T08:14:54;18.00;55.20
61398;DHT22;47267;48.130;-2.040;2024-03-23T08:17:20;18.00;54.70
61398;DHT22;47267;48.130;-2.040;2024-03-23T08:19:45;18.00;54.60
61398;DHT22;47267;48.130;-2.040;2024-03-23T08:22:11;18.00;54.50
61398;DHT22;47267;48.130;-2.040;2024-03-23T08:24:37;18.00;54.40
61398;DHT22;47267;48.130;-2.040;2024-03-23T08:27:02;18.00;54.50
61398;DHT22;47267;48.130;-2.040;2024-03-23T08:29:30;18.00;54.40
61398;DHT22;47267;48.130;-2.040;2024-03-23T08:31:55;18.00;54.40
61398;DHT22;47267;48.130;-2.040;2024-03-23T08:34:21;18.00;54.30
61398;DHT22;47267;48.130;-2.040;2024-03-23T08:36:47;18.00;54.30
61398;DHT22;47267;48.130;-2.040;2024-03-23T08:39:12;18.00;54.30
61398;DHT22;47267;48.130;-2.040;2024-03-23T08:41:39;18.00;54.20
61398;DHT22;47267;48.130;-2.040;2024-03-23T08:44:04;18.00;54.10
61398;DHT22;47267;48.130;-2.040;2024-03-23T08:46:30;18.00;54.10
61398;DHT22;47267;48.130;-2.040;2024-03-23T08:48:55;18.10;54.10
61398;DHT22;47267;48.130;-2.040;2024-03-23T08:51:21;18.10;54.10
61398;DHT22;47267;48.130;-2.040;2024-03-23T08:53:47;18.10;54.10
61398;DHT22;47267;48.130;-2.040;2024-03-23T08:56:12;18.10;54.10
61398;DHT22;47267;48.130;-2.040;2024-03-23T08:58:39;18.10;54.10
61398;DHT22;47267;48.130;-2.040;2024-03-23T09:01:11;18.10;54.10
61398;DHT22;47267;48.130;-2.040;2024-03-23T09:03:38;18.10;54.10
61398;DHT22;47267;48.130;-2.040;2024-03-23T09:06:12;18.10;54.00
61398;DHT22;47267;48.130;-2.040;2024-03-23T09:08:38;18.10;54.00
61398;DHT22;47267;48.130;-2.040;2024-03-23T09:11:06;18.10;54.00
61398;DHT22;47267;48.130;-2.040;2024-03-23T09:13:36;18.10;53.90
61398;DHT22;47267;48.130;-2.040;2024-03-23T09:16:02;18.10;53.90
61398;DHT22;47267;48.130;-2.040;2024-03-23T09:18:32;18.20;53.90
61398;DHT22;47267;48.130;-2.040;2024-03-23T09:20:58;18.10;53.90
61398;DHT22;47267;48.130;-2.040;2024-03-23T09:23:23;18.10;53.90
61398;DHT22;47267;48.130;-2.040;2024-03-23T09:25:49;18.20;53.90
61398;DHT22;47267;48.130;-2.040;2024-03-23T09:28:15;18.20;53.90
61398;DHT22;47267;48.130;-2.040;2024-03-23T09:30:40;18.20;53.80
61398;DHT22;47267;48.130;-2.040;2024-03-23T09:33:10;18.20;54.50
61398;DHT22;47267;48.130;-2.040;2024-03-23T09:35:43;18.20;53.90
61398;DHT22;47267;48.130;-2.040;2024-03-23T09:38:10;18.20;53.90
61398;DHT22;47267;48.130;-2.040;2024-03-23T09:40:42;18.20;53.80
61398;DHT22;47267;48.130;-2.040;2024-03-23T09:43:09;18.20;53.80
61398;DHT22;47267;48.130;-2.040;2024-03-23T09:45:39;18.20;53.80
61398;DHT22;47267;48.130;-2.040;2024-03-23T09:48:05;18.20;53.80
61398;DHT22;47267;48.130;-2.040;2024-03-23T09:50:32;18.20;53.80
61398;DHT22;47267;48.130;-2.040;2024-03-23T09:52:58;18.20;53.80
61398;DHT22;47267;48.130;-2.040;2024-03-23T09:55:23;18.30;53.80
61398;DHT22;47267;48.130;-2.040;2024-03-23T09:57:50;18.30;53.70
61398;DHT22;47267;48.130;-2.040;2024-03-23T10:00:16;18.30;53.70
61398;DHT22;47267;48.130;-2.040;2024-03-23T10:02:42;18.30;53.70
61398;DHT22;47267;48.130;-2.040;2024-03-23T10:05:22;18.30;53.70
61398;DHT22;47267;48.130;-2.040;2024-03-23T10:07:51;18.30;53.60
61398;DHT22;47267;48.130;-2.040;2024-03-23T10:10:17;18.30;53.70
61398;DHT22;47267;48.130;-2.040;2024-03-23T10:12:48;18.30;53.60
61398;DHT22;47267;48.130;-2.040;2024-03-23T10:15:25;18.30;53.60
61398;DHT22;47267;48.130;-2.040;2024-03-23T10:17:51;18.30;53.60
61398;DHT22;47267;48.130;-2.040;2024-03-23T10:20:21;18.30;53.60
61398;DHT22;47267;48.130;-2.040;2024-03-23T10:22:50;18.30;53.50
61398;DHT22;47267;48.130;-2.040;2024-03-23T10:25:23;18.40;53.60
61398;DHT22;47267;48.130;-2.040;2024-03-23T10:27:59;18.40;53.60
61398;DHT22;47267;48.130;-2.040;2024-03-23T10:30:25;18.40;53.50
61398;DHT22;47267;48.130;-2.040;2024-03-23T10:33:10;18.40;53.50
61398;DHT22;47267;48.130;-2.040;2024-03-23T10:35:39;18.40;53.50
61398;DHT22;47267;48.130;-2.040;2024-03-23T10:38:06;18.40;53.50
61398;DHT22;47267;48.130;-2.040;2024-03-23T10:40:34;18.40;53.50
61398;DHT22;47267;48.130;-2.040;2024-03-23T10:43:00;18.40;53.50
61398;DHT22;47267;48.130;-2.040;2024-03-23T10:45:28;18.40;53.50
61398;DHT22;47267;48.130;-2.040;2024-03-23T10:47:54;18.40;53.50
61398;DHT22;47267;48.130;-2.040;2024-03-23T10:50:19;18.40;53.60
61398;DHT22;47267;48.130;-2.040;2024-03-23T10:52:49;18.50;53.60
61398;DHT22;47267;48.130;-2.040;2024-03-23T10:55:18;18.40;53.50
61398;DHT22;47267;48.130;-2.040;2024-03-23T10:57:49;18.40;53.50
61398;DHT22;47267;48.130;-2.040;2024-03-23T11:00:17;18.50;53.60
61398;DHT22;47267;48.130;-2.040;2024-03-23T11:02:43;18.50;53.60
61398;DHT22;47267;48.130;-2.040;2024-03-23T11:05:35;18.50;53.70
61398;DHT22;47267;48.130;-2.040;2024-03-23T11:08:00;18.50;53.60
61398;DHT22;47267;48.130;-2.040;2024-03-23T11:10:28;18.50;53.60
61398;DHT22;47267;48.130;-2.040;2024-03-23T11:15:40;18.50;53.70
61398;DHT22;47267;48.130;-2.040;2024-03-23T11:18:07;18.50;53.70
61398;DHT22;47267;48.130;-2.040;2024-03-23T11:20:37;18.50;53.70
61398;DHT22;47267;48.130;-2.040;2024-03-23T11:23:04;18.50;53.50
61398;DHT22;47267;48.130;-2.040;2024-03-23T11:25:30;18.50;53.50
61398;DHT22;47267;48.130;-2.040;2024-03-23T11:27:57;18.50;53.60
61398;DHT22;47267;48.130;-2.040;2024-03-23T11:30:24;18.60;53.70
61398;DHT22;47267;48.130;-2.040;2024-03-23T11:32:57;18.50;53.80
61398;DHT22;47267;48.130;-2.040;2024-03-23T11:35:33;18.60;53.90
61398;DHT22;47267;48.130;-2.040;2024-03-23T11:40:28;18.60;54.10
61398;DHT22;47267;48.130;-2.040;2024-03-23T11:43:02;18.60;54.30
61398;DHT22;47267;48.130;-2.040;2024-03-23T11:45:29;18.60;54.20
61398;DHT22;47267;48.130;-2.040;2024-03-23T11:48:12;18.70;54.30
61398;DHT22;47267;48.130;-2.040;2024-03-23T11:50:39;18.60;54.30
61398;DHT22;47267;48.130;-2.040;2024-03-23T11:53:15;18.60;54.30
61398;DHT22;47267;48.130;-2.040;2024-03-23T11:58:21;18.70;54.60
61398;DHT22;47267;48.130;-2.040;2024-03-23T12:00:52;18.70;54.60
61398;DHT22;47267;48.130;-2.040;2024-03-23T12:03:19;18.70;55.40
61398;DHT22;47267;48.130;-2.040;2024-03-23T12:05:52;18.70;55.30
61398;DHT22;47267;48.130;-2.040;2024-03-23T12:08:29;18.90;54.90
61398;DHT22;47267;48.130;-2.040;2024-03-23T12:13:41;19.20;54.30
61398;DHT22;47267;48.130;-2.040;2024-03-23T12:16:18;19.30;53.70
61398;DHT22;47267;48.130;-2.040;2024-03-23T12:18:48;19.30;53.70
61398;DHT22;47267;48.130;-2.040;2024-03-23T12:21:15;19.30;53.80
61398;DHT22;47267;48.130;-2.040;2024-03-23T12:23:44;19.30;53.60
61398;DHT22;47267;48.130;-2.040;2024-03-23T12:26:11;19.30;53.40
61398;DHT22;47267;48.130;-2.040;2024-03-23T12:28:37;19.30;53.60
61398;DHT22;47267;48.130;-2.040;2024-03-23T12:31:03;19.20;53.70
61398;DHT22;47267;48.130;-2.040;2024-03-23T12:33:29;19.20;53.50
61398;DHT22;47267;48.130;-2.040;2024-03-23T12:35:55;19.20;53.60
61398;DHT22;47267;48.130;-2.040;2024-03-23T12:38:21;19.20;53.70
61398;DHT22;47267;48.130;-2.040;2024-03-23T12:40:50;19.20;53.70
61398;DHT22;47267;48.130;-2.040;2024-03-23T12:43:17;19.20;53.70
61398;DHT22;47267;48.130;-2.040;2024-03-23T12:45:49;19.20;53.80
61398;DHT22;47267;48.130;-2.040;2024-03-23T12:48:15;19.20;53.80
61398;DHT22;47267;48.130;-2.040;2024-03-23T12:50:41;19.20;53.70
61398;DHT22;47267;48.130;-2.040;2024-03-23T12:53:07;19.20;53.80
61398;DHT22;47267;48.130;-2.040;2024-03-23T12:55:35;19.20;53.70
61398;DHT22;47267;48.130;-2.040;2024-03-23T12:58:01;19.20;53.60
61398;DHT22;47267;48.130;-2.040;2024-03-23T13:00:26;19.20;53.70
61398;DHT22;47267;48.130;-2.040;2024-03-23T13:02:52;19.20;53.70
61398;DHT22;47267;48.130;-2.040;2024-03-23T13:05:18;19.20;53.60
61398;DHT22;47267;48.130;-2.040;2024-03-23T13:07:43;19.20;53.70
61398;DHT22;47267;48.130;-2.040;2024-03-23T13:10:09;19.20;53.70
61398;DHT22;47267;48.130;-2.040;2024-03-23T13:12:35;19.20;53.60
61398;DHT22;47267;48.130;-2.040;2024-03-23T13:15:01;19.20;53.60
61398;DHT22;47267;48.130;-2.040;2024-03-23T13:17:27;19.20;53.70
61398;DHT22;47267;48.130;-2.040;2024-03-23T13:19:54;19.20;53.70
61398;DHT22;47267;48.130;-2.040;2024-03-23T13:22:21;19.20;53.60
61398;DHT22;47267;48.130;-2.040;2024-03-23T13:24:46;19.20;53.60
61398;DHT22;47267;48.130;-2.040;2024-03-23T13:27:12;19.20;53.60
61398;DHT22;47267;48.130;-2.040;2024-03-23T13:29:37;19.20;53.70
61398;DHT22;47267;48.130;-2.040;2024-03-23T13:32:04;19.20;53.60
61398;DHT22;47267;48.130;-2.040;2024-03-23T13:34:30;19.20;53.70
61398;DHT22;47267;48.130;-2.040;2024-03-23T13:36:56;19.20;53.70
61398;DHT22;47267;48.130;-2.040;2024-03-23T13:39:23;19.20;53.70
61398;DHT22;47267;48.130;-2.040;2024-03-23T13:41:49;19.20;53.70
61398;DHT22;47267;48.130;-2.040;2024-03-23T13:44:15;19.20;53.80
61398;DHT22;47267;48.130;-2.040;2024-03-23T13:46:42;19.20;53.70
61398;DHT22;47267;48.130;-2.040;2024-03-23T13:51:50;19.20;53.70
61398;DHT22;47267;48.130;-2.040;2024-03-23T13:54:16;19.20;53.80
61398;DHT22;47267;48.130;-2.040;2024-03-23T13:56:41;19.20;54.40
61398;DHT22;47267;48.130;-2.040;2024-03-23T13:59:07;19.20;53.70
61398;DHT22;47267;48.130;-2.040;2024-03-23T14:01:33;19.20;53.70
61398;DHT22;47267;48.130;-2.040;2024-03-23T14:03:59;19.20;53.70
61398;DHT22;47267;48.130;-2.040;2024-03-23T14:06:24;19.20;53.70
61398;DHT22;47267;48.130;-2.040;2024-03-23T14:08:50;19.20;53.70
61398;DHT22;47267;48.130;-2.040;2024-03-23T14:11:18;19.20;53.70
61398;DHT22;47267;48.130;-2.040;2024-03-23T14:13:44;19.20;53.80
61398;DHT22;47267;48.130;-2.040;2024-03-23T14:16:10;19.20;53.60
61398;DHT22;47267;48.130;-2.040;2024-03-23T14:18:36;19.20;53.60
61398;DHT22;47267;48.130;-2.040;2024-03-23T14:21:02;19.20;53.70
61398;DHT22;47267;48.130;-2.040;2024-03-23T14:23:29;19.20;53.70
61398;DHT22;47267;48.130;-2.040;2024-03-23T14:25:55;19.20;53.70
61398;DHT22;47267;48.130;-2.040;2024-03-23T14:28:22;19.20;53.70
61398;DHT22;47267;48.130;-2.040;2024-03-23T14:30:52;19.20;53.70
61398;DHT22;47267;48.130;-2.040;2024-03-23T14:33:18;19.20;53.70
61398;DHT22;47267;48.130;-2.040;2024-03-23T14:35:56;19.20;53.80
61398;DHT22;47267;48.130;-2.040;2024-03-23T14:38:23;19.20;53.70
61398;DHT22;47267;48.130;-2.040;2024-03-23T14:40:49;19.20;53.70
61398;DHT22;47267;48.130;-2.040;2024-03-23T14:43:14;19.20;53.80
61398;DHT22;47267;48.130;-2.040;2024-03-23T14:46:09;19.20;53.80
61398;DHT22;47267;48.130;-2.040;2024-03-23T14:48:35;19.20;53.80
61398;DHT22;47267;48.130;-2.040;2024-03-23T14:51:02;19.20;53.80
61398;DHT22;47267;48.130;-2.040;2024-03-23T14:53:32;19.20;53.80
61398;DHT22;47267;48.130;-2.040;2024-03-23T14:55:58;19.20;53.80
61398;DHT22;47267;48.130;-2.040;2024-03-23T14:58:25;19.20;53.80
61398;DHT22;47267;48.130;-2.040;2024-03-23T15:00:51;19.20;53.70
61398;DHT22;47267;48.130;-2.040;2024-03-23T15:03:18;19.20;53.80
61398;DHT22;47267;48.130;-2.040;2024-03-23T15:05:56;19.20;53.70
61398;DHT22;47267;48.130;-2.040;2024-03-23T15:08:22;19.20;53.70
61398;DHT22;47267;48.130;-2.040;2024-03-23T15:10:48;19.20;53.70
61398;DHT22;47267;48.130;-2.040;2024-03-23T15:13:14;19.20;53.70
61398;DHT22;47267;48.130;-2.040;2024-03-23T15:15:43;19.20;53.60
61398;DHT22;47267;48.130;-2.040;2024-03-23T15:18:13;19.20;53.50
61398;DHT22;47267;48.130;-2.040;2024-03-23T15:20:41;19.20;53.60
61398;DHT22;47267;48.130;-2.040;2024-03-23T15:23:06;19.30;53.60
61398;DHT22;47267;48.130;-2.040;2024-03-23T15:25:32;19.20;53.50
61398;DHT22;47267;48.130;-2.040;2024-03-23T15:27:58;19.20;53.50
61398;DHT22;47267;48.130;-2.040;2024-03-23T15:30:25;19.20;53.50
61398;DHT22;47267;48.130;-2.040;2024-03-23T15:32:50;19.20;53.50
61398;DHT22;47267;48.130;-2.040;2024-03-23T15:35:16;19.20;53.50
61398;DHT22;47267;48.130;-2.040;2024-03-23T15:37:42;19.20;53.50
61398;DHT22;47267;48.130;-2.040;2024-03-23T15:40:09;19.30;53.50
61398;DHT22;47267;48.130;-2.040;2024-03-23T15:42:35;19.20;53.60
61398;DHT22;47267;48.130;-2.040;2024-03-23T15:45:01;19.20;53.50
61398;DHT22;47267;48.130;-2.040;2024-03-23T15:47:29;19.20;53.50
61398;DHT22;47267;48.130;-2.040;2024-03-23T15:49:54;19.20;53.50
61398;DHT22;47267;48.130;-2.040;2024-03-23T15:52:21;19.30;53.60
61398;DHT22;47267;48.130;-2.040;2024-03-23T15:54:47;19.30;53.60
61398;DHT22;47267;48.130;-2.040;2024-03-23T15:57:12;19.30;53.70
61398;DHT22;47267;48.130;-2.040;2024-03-23T15:59:41;19.30;53.60
61398;DHT22;47267;48.130;-2.040;2024-03-23T16:02:07;19.20;53.50
61398;DHT22;47267;48.130;-2.040;2024-03-23T16:04:32;19.20;53.50
61398;DHT22;47267;48.130;-2.040;2024-03-23T16:06:58;19.20;53.50
61398;DHT22;47267;48.130;-2.040;2024-03-23T16:09:24;19.30;53.50
61398;DHT22;47267;48.130;-2.040;2024-03-23T16:11:49;19.20;53.40
61398;DHT22;47267;48.130;-2.040;2024-03-23T16:14:15;19.30;53.40
61398;DHT22;47267;48.130;-2.040;2024-03-23T16:16:41;19.30;53.40
61398;DHT22;47267;48.130;-2.040;2024-03-23T16:19:06;19.30;53.40
61398;DHT22;47267;48.130;-2.040;2024-03-23T16:21:32;19.30;53.40